Tiempo atmosférico en la estación meteorológica de Herrera Del Duque, Badajoz (447 m.)



Fecha
DESCASC
Temp. máxima en grados centígrados (hora)
DESCASC
Temp. mínima en grados centígrados (hora)
DESCASC
Temp. media en grados centígrados
DESCASC
Racha de viento máxima en m/sg (hora)
DESCASC
Velocidad máxima media en intervalos de 10 minutos(hora)
DESCASC
Precipitaciones diarias en mm
DESCASC
Precipitaciones de 00:00 a 06:00 en mm
DESCASC
Precipitaciones de 06:00 a 12:00 en mm
DESCASC
Precipitaciones de 12:00 a 18:00 en mm
DESCASC
Precipitaciones de 18:00 a 24:00 en mm
DESCASC
17-09-2020 28.7 (16:50) 20.6 (20:20) 24.7 15.28 (17:00) 7.78 (17:00) 3 0 0 0 3
16-09-2020 33.2 (15:20) 15.8 (08:00) 24.5 7.22 (16:30) 3.89 (21:00) 0 0 0 0 0
15-09-2020 32.1 (17:10) 19.4 (08:20) 25.7 8.61 (12:50) 4.72 (18:20) 0 0 0 0 0
14-09-2020 35 (17:20) 19.7 (00:00) 27.4 10.28 (22:00) 4.72 (01:30) 0 0 0 0 0
13-09-2020 35.7 (17:30) 18.6 (00:00) 27.2 8.61 (17:20) 4.44 (17:30) 0 0 0 0 0
12-09-2020 36.4 (16:10) 15.7 (00:00) 26.1 6.39 (15:30) 3.06 (15:20) 0 0 0 0 0
11-09-2020 35.6 (16:30) 14.9 (00:00) 25.2 6.67 (17:50) 3.33 (19:30) 0 0 0 0 0
10-09-2020 34.5 (17:00) 14.9 (00:00) 24.7 6.39 (15:30) 3.61 (16:20) 0 0 0 0 0
09-09-2020 32.3 (17:40) 15.2 (00:00) 23.7 7.22 (16:50) 3.61 (18:40) 0 0 0 0 0
08-09-2020 31.4 (17:40) 15.6 (00:00) 23.5 8.06 (12:30) 4.72 (10:10) 0 0 0 0 0
07-09-2020 34.9 (16:50) 18.7 (07:00) 26.8 9.17 (15:10) 5.28 (17:20) 0 0 0 0 0
06-09-2020 36.9 (18:10) 16.5 (00:00) 26.7 6.39 (19:20) 3.89 (19:50) 0 0 0 0 0
05-09-2020 36.7 (18:10) 15.8 (00:00) 26.3 6.11 (16:20) 3.33 (17:30) 0 0 0 0 0
04-09-2020 36.4 (17:40) 17.1 (00:00) 26.8 8.33 (15:30) 4.17 (16:00) 0 0 0 0 0
03-09-2020 35.8 (18:10) 15.6 (00:00) 25.7 6.39 (14:30) 3.33 (14:10) 0 0 0 0 0
02-09-2020 34.3 (18:10) 12.4 (00:00) 23.3 6.39 (17:30) 3.89 (17:40) 0 0 0 0 0
01-09-2020 32.6 (16:00) 15.1 (00:00) 23.8 8.06 (16:20) 4.72 (17:20) 0 0 0 0 0
31-08-2020 31 (17:30) 12.4 (00:00) 21.7 10 (15:50) 3.61 (18:30) 0 0 0 0 0
30-08-2020 28.4 (18:00) 12.9 (00:00) 20.6 9.44 (17:20) 4.17 (20:20) 0 0 0 0 0
29-08-2020 28.4 (17:10) 14.3 (00:00) 21.3 10.83 (13:50) 5 (17:50) 0 0 0 0 0
28-08-2020 32.7 (16:50) 20.6 (00:00) 26.7 -- (--) -- (--) 0 0 0 0 0
27-08-2020 38.2 (17:20) 17.4 (00:00) 27.8 9.17 (22:20) 4.72 (22:20) 0 0 0 0 0
26-08-2020 38.7 (16:50) 18.6 (00:00) 28.7 8.06 (18:00) 4.17 (18:20) 0 0 0 0 0
25-08-2020 39 (17:00) 17.3 (00:00) 28.1 6.94 (14:00) 3.89 (18:00) 0 0 0 0 0
24-08-2020 37.9 (18:30) 14.8 (00:00) 26.4 5.83 (16:50) 3.06 (16:50) 0 0 0 0 0
23-08-2020 36.3 (18:10) 14.1 (00:00) 25.2 7.22 (14:50) 3.61 (16:10) 0 0 0 0 0
22-08-2020 35.4 (17:40) 18.4 (00:00) 26.9 6.67 (13:10) 3.61 (13:40) 0 0 0 0 0
21-08-2020 33.4 (17:00) 20.7 (00:00) 27.1 10.56 (18:30) 4.72 (14:30) 0 0 0 0 0

Gráficas

Temp. máximas Temp. mínimas Temp. medias Precipitaciones Rachas de viento máximas Velocidades máximas media en intervalos de 10 minutos

Datos horarios

Fecha y hora oficial Temperatura (ºC) Velocidad del viento (km/h) Dirección del viento Racha (km/h) Dirección de racha Precipitación (mm) Presión (hPa) Tendencia (hPa) Humedad (%)
2020-09-19 23:00:00 20.5 5 Sudoeste 14 Oeste 0 966.9 1.5 56
2020-09-19 22:00:00 21.1 8 Oeste 17 Oeste 0 966.4 1.3 52
2020-09-19 21:00:00 21.5 10 Oeste 16 Oeste 0 965.7 0.8 50
2020-09-19 20:00:00 22.1 8 Oeste 25 Noroeste 0 965.4 0.4 46
2020-09-19 19:00:00 24.1 14 Oeste 27 Oeste 0 965.1 -0.3 39
2020-09-19 18:00:00 24.8 13 Oeste 31 Oeste 0 964.9 -0.8 38
2020-09-19 17:00:00 24.5 13 Sudoeste 30 Oeste 0 965 -- 38
2020-09-19 16:00:00 23.2 15 Oeste 29 Oeste 0 965.4 -- 45
2020-09-19 15:00:00 22.1 18 Oeste 27 Oeste 0 965.7 -- 50
2020-09-19 14:00:00 21.8 12 Oeste 26 Oeste 0 966.2 -- 53
2020-09-19 13:00:00 21.8 14 Sudoeste 29 Sudoeste 0 966.3 -- 53
2020-09-19 12:00:00 19.7 13 Sudoeste 27 Sudoeste 0 966.3 -- 62
2020-09-19 11:00:00 18.3 13 Sudoeste 25 Sudoeste 0 966.1 -- 71
2020-09-19 10:00:00 17.3 14 Sudoeste 29 Oeste 0 965.7 -- 76
2020-09-19 09:00:00 16.9 13 Sudoeste 23 Sudoeste 0 965.1 -- 76
2020-09-19 08:00:00 16.7 12 Sudoeste 26 Sudoeste 0 964.3 -- 78
2020-09-19 07:00:00 16.8 12 Sudoeste 30 Sudoeste 0 963.9 -- 78
2020-09-19 06:00:00 16.7 13 Sudoeste 35 Sudoeste 0.2 963.6 -- 79
2020-09-19 05:00:00 17.4 14 Sudoeste 31 Sudoeste 0 963.3 -- 74
2020-09-19 04:00:00 17.4 13 Sudoeste 28 Sudoeste 0 963.3 -- 76
2020-09-19 03:00:00 17.3 14 Sudoeste 33 Sudoeste 0.4 963.3 -- 79
2020-09-19 02:00:00 17.4 14 Sudoeste 36 Sudoeste 0.2 963.2 -- 78
2020-09-19 01:00:00 17.2 17 Sudoeste 44 Sudoeste 3.6 963 -- 80
2020-09-19 00:00:00 18.3 26 Sudoeste 51 Sudoeste 0.4 962.7 -- 71
2020-09-18 23:00:00 19.6 17 Sur 40 Sur 0 961.8 -- 63
2020-09-18 22:00:00 20 21 Sur 44 Sur 0 961.4 -- 63
2020-09-18 21:00:00 20.2 18 Sur 38 Sudeste 0 960.9 -- 63
2020-09-18 20:00:00 20.2 12 Sur 23 Sur 0 960.6 -- 61
2020-09-18 19:00:00 20 15 Sur 28 Sur 0.2 960.7 -- 64
2020-09-18 18:00:00 20.2 7 Sudeste 14 Este 0 960.9 -- 76
2020-09-18 17:00:00 18.6 9 Sudeste 18 Sudeste 0.2 960.8 -- 78
2020-09-18 16:00:00 16.9 8 Sur 32 Sudoeste 4.6 961.7 -- 84
2020-09-18 15:00:00 17.2 26 Sur 48 Sur 4.6 961.4 -- 79
2020-09-18 14:00:00 24 7 Sur 30 Sudoeste 0 960.1 -- 49
2020-09-18 13:00:00 24.7 12 Sur 30 Sur 0 960.7 -- 47
2020-09-18 12:00:00 23.1 7 Sudoeste 27 Sudoeste 0 961.2 -- 55
2020-09-18 11:00:00 22.1 8 Sur 22 Sudoeste 0 961.3 -- 61
2020-09-18 10:00:00 20.2 6 Sur 19 Sur 0 961.3 -- 70
2020-09-18 09:00:00 17.8 4 Sur 12 Sudoeste 0 960.8 -- 82
2020-09-18 08:00:00 17.6 4 Sudoeste 27 Oeste 1.6 960 -- 81
2020-09-18 07:00:00 19.4 20 Sudoeste 42 Sur 0 960 -- 72
2020-09-18 06:00:00 20.7 13 Sur 36 Sur 0 959.4 -- 67
2020-09-18 05:00:00 21 22 Sudoeste 44 Sudoeste 0 959.6 -- 63
2020-09-18 04:00:00 21.4 15 Sur 45 Sur 0 959.5 -- 62
2020-09-18 03:00:00 21.6 17 Sur 40 Sur 0 958.9 -- 65
2020-09-18 02:00:00 21.9 14 Sur 46 Sudoeste 0 960.1 -- 66
2020-09-18 01:00:00 22.1 11 Sur 32 Sudeste 0 960.2 -- 65
2020-09-18 00:00:00 22.6 8 Sur 23 Sur 0 960.9 -- 62
2020-09-17 23:00:00 22.7 9 Sur 32 Sudeste 0 960.8 -- 62
2020-09-17 22:00:00 22.3 12 Este 40 Sudeste 0 960.5 -- 64
2020-09-17 21:00:00 22.4 15 Sur 35 Sudeste 0.2 960 -- 62
2020-09-17 20:00:00 22.9 20 Sudeste 41 Sudoeste 2.8 960.4 -- 61
2020-09-17 19:00:00 27.3 18 Sudoeste 53 Oeste 0 959.5 -- 36
2020-09-17 18:00:00 28.3 19 Sudoeste 46 Sur 0 959.4 -- 33
2020-09-17 17:00:00 28.4 28 Sudoeste 55 Sudoeste 0 960 -- 32
2020-09-17 16:00:00 26.6 5 Sudeste 17 Sudeste 0 960.5 -- 43
2020-09-17 15:00:00 25.5 8 Sur 27 Sur 0 961.7 -- 46
2020-09-17 14:00:00 25.1 10 Sur 27 Sudeste 0 962.4 -- 49
2020-09-17 13:00:00 23.7 9 Sudeste 23 Sudeste 0 962.7 -- 56
2020-09-17 12:00:00 23 8 Este 16 Sudeste 0 963.1 -- 58
2020-09-17 11:00:00 21.7 6 Este 18 Sudeste 0 963.3 -- 62
2020-09-17 10:00:00 22.3 6 Sudeste 21 Sudeste 0 963.1 -- 56
2020-09-17 09:00:00 21.8 8 Sudeste 17 Sudeste 0 963.2 -- 57
2020-09-17 08:00:00 21.8 13 Sudeste 27 Sudeste 0 962.7 -- 55
2020-09-17 07:00:00 22.1 17 Sudeste 26 Sudeste 0 962 -- 52
2020-09-17 06:00:00 21.9 9 Sudeste 17 Sudeste 0 962.1 -- 51
2020-09-17 05:00:00 22.2 10 Sudeste 23 Sudeste 0 962.6 -- 55
2020-09-17 04:00:00 22.5 14 Sudeste 36 Sudeste 0 963.5 -- 52
2020-09-17 03:00:00 23.8 18 Sudeste 33 Sudeste 0 964 -- 42
2020-09-17 02:00:00 24.9 8 Sur 26 Sudoeste 0 963.9 -- 41
2020-09-17 01:00:00 25.9 8 Sudoeste 15 Sur 0 964.1 -- 30
2020-09-17 00:00:00 26.3 8 Sudoeste 16 Sudoeste 0 963.9 -- 27
2020-09-16 23:00:00 26.7 6 Sudoeste 15 Sudoeste 0 963.6 -- 26
2020-09-16 22:00:00 27.4 8 Sudoeste 24 Sudoeste 0 963.7 -- 28
2020-09-16 21:00:00 28.2 14 Sudoeste 25 Sur 0 963.2 -- 25
2020-09-16 20:00:00 29.2 10 Sur 22 Sur 0 963 -- 27
2020-09-16 19:00:00 30.2 13 Sur 25 Sur 0 962.7 -- 26
2020-09-16 18:00:00 31.1 7 Sudeste 18 Sudoeste 0 962.7 -- 24
2020-09-16 17:00:00 32.4 10 Sudoeste 26 Sur 0 963.1 -- 22
2020-09-16 16:00:00 31.7 6 Sudoeste 24 Sudoeste 0 963.8 -- 23
2020-09-16 15:00:00 32.7 5 Este 17 Noroeste 0 964.6 -- 20
2020-09-16 14:00:00 30.9 8 Este 14 Nordeste 0 965.5 -- 25
2020-09-16 13:00:00 29.3 6 Nordeste 14 Nordeste 0 966.3 -- 30
2020-09-16 12:00:00 27.4 5 Este 10 Nordeste 0 967 -- 34
2020-09-16 11:00:00 24.7 3 Norte 7 Nordeste 0 967.5 -- 43
2020-09-16 10:00:00 20.2 3 Oeste 8 Oeste 0 967.5 -- 58
2020-09-16 09:00:00 17 3 Norte 4 Nordeste 0 967.4 -- 68
2020-09-16 08:00:00 15.8 0 Calma 5 Sudeste 0 967.3 -- 73
2020-09-16 07:00:00 17.4 0 Calma 5 Sudeste 0 967.4 -- 71
2020-09-16 06:00:00 17.1 3 Oeste 8 Sudoeste 0 967.3 -- 69
2020-09-16 05:00:00 17.8 2 Oeste 4 Sudeste 0 967.5 -- 62
2020-09-16 04:00:00 18.6 2 Nordeste 4 Sudeste 0 967.9 -- 59
2020-09-16 03:00:00 19.6 4 Sur 6 Oeste 0 968 -- 58
2020-09-16 02:00:00 19.3 0 Calma 5 Sudeste 0 968 -- 57
2020-09-16 01:00:00 21.2 3 Sur 6 Sur 0 968.1 -- 53
2020-09-16 00:00:00 22.5 2 Sudeste 6 Sur 0 968 -- 48
2020-09-15 23:00:00 23.6 4 Sudoeste 6 Sudoeste 0 967.8 -- 46
2020-09-15 22:00:00 24.8 3 Sur 4 Sudoeste 0 967.5 -- 42
2020-09-15 21:00:00 26.5 4 Oeste 14 Noroeste 0 967.1 -- 37
2020-09-15 20:00:00 28.8 11 Noroeste 21 Noroeste 0 966.8 -- 31
2020-09-15 19:00:00 30.8 10 Sudoeste 27 Sudoeste 0 966.9 -- 23
2020-09-15 18:00:00 31.6 12 Sudoeste 28 Oeste 0 967.1 -- 22
2020-09-15 17:00:00 31.8 12 Sudoeste 28 Sudoeste 0 967.5 -- 23
2020-09-15 16:00:00 31 13 Sudoeste 30 Sudoeste 0 968.2 -- 26
2020-09-15 15:00:00 29.6 10 Sudoeste 27 Sudoeste 0 968.9 -- 31
2020-09-15 14:00:00 29.2 9 Sur 26 Sudoeste 0 969.5 -- 33
2020-09-15 13:00:00 28 10 Sur 31 Sudoeste 0 970 -- 35
2020-09-15 12:00:00 26.7 7 Oeste 17 Sudoeste 0 970.4 -- 42
2020-09-15 11:00:00 25.3 6 Sudoeste 16 Sudoeste 0 970.4 -- 45
2020-09-15 10:00:00 23.4 4 Sudoeste 12 Sudoeste 0 970.1 -- 48
2020-09-15 09:00:00 20.1 4 Sudoeste 9 Oeste 0 970 -- 60
2020-09-15 08:00:00 19.5 2 Sudeste 8 Sudeste 0 969.4 -- 61
2020-09-15 07:00:00 20.4 3 Este 8 Oeste 0 969 -- 59
2020-09-15 06:00:00 21 8 Noroeste 16 Sudoeste 0 968.9 -- 58
2020-09-15 05:00:00 22.6 11 Sudoeste 19 Oeste 0 969 -- 58
2020-09-15 04:00:00 23.2 10 Sudoeste 20 Oeste 0 968.9 -- 56
2020-09-15 03:00:00 23.9 10 Oeste 22 Oeste 0 969 -- 53
2020-09-15 02:00:00 24.1 9 Sudoeste 15 Sur 0 969 -- 50
2020-09-15 01:00:00 23.1 3 Norte 7 Sudoeste 0 968.6 -- 53
2020-09-15 00:00:00 24.2 3 Oeste 12 Noroeste 0 968 -- 48
2020-09-14 23:00:00 25.4 4 Sudoeste 24 Oeste 0 967.5 -- 45
2020-09-14 22:00:00 26.6 16 Oeste 37 Oeste 0 967.5 -- 41
2020-09-14 21:00:00 29.5 12 Sur 27 Sudeste 0 965.9 -- 28
2020-09-14 20:00:00 30.2 13 Sur 28 Sur 0 965.4 -- 26
2020-09-14 19:00:00 32.4 13 Sur 31 Sudeste 0 965.7 -- 22
2020-09-14 18:00:00 32.8 11 Sur 27 Sur 0 965.9 -- 20
2020-09-14 17:00:00 34.6 10 Sur 29 Sudoeste 0 966.1 -- 17
2020-09-14 16:00:00 33.3 13 Sur 32 Sudeste 0 967 -- 19
2020-09-14 15:00:00 33.1 12 Sudoeste 26 Sudoeste 0 968 -- 18
2020-09-14 14:00:00 31.6 11 Sur 22 Sur 0 968.4 -- 21
2020-09-14 13:00:00 31.7 10 Sudeste 20 Sudeste 0 968.8 -- 21
2020-09-14 12:00:00 30 4 Noroeste 9 Norte 0 969.3 -- 24
2020-09-14 11:00:00 26.1 5 Noroeste 10 Oeste 0 969.4 -- 31
2020-09-14 10:00:00 22.8 3 Oeste 6 Oeste 0 968.8 -- 40
2020-09-14 09:00:00 20.1 2 Norte 4 Norte 0 969 -- 47
2020-09-14 08:00:00 19.7 2 Este 4 Este 0 968.7 -- 47
2020-09-14 07:00:00 20.9 2 Sudoeste 9 Oeste 0 968.5 -- 45
2020-09-14 06:00:00 21.5 0 Calma 8 Sudeste 0 968.2 -- 41
2020-09-14 05:00:00 22.3 2 Este 10 Este 0 968.4 -- 39
2020-09-14 04:00:00 24 4 Nordeste 16 Sudoeste 0 968.8 -- 33
2020-09-14 03:00:00 24.7 3 Sudeste 14 Sudeste 0 969.1 -- 31
2020-09-14 02:00:00 26 3 Sudeste 31 Sudoeste 0 969 -- 27
2020-09-14 01:00:00 27.2 9 Sudoeste 17 Sudoeste 0 968.8 -- 25
2020-09-14 00:00:00 26.4 2 Oeste 9 Sur 0 968.4 -- 26
2020-09-13 23:00:00 25.8 3 Noroeste 14 Sudoeste 0 967.7 -- 25
2020-09-13 22:00:00 28.7 5 Sudeste 9 Sudeste 0 966.9 -- 20
2020-09-13 21:00:00 30.9 7 Este 13 Este 0 966.3 -- 17
2020-09-13 20:00:00 32.9 8 Este 23 Sudeste 0 966.3 -- 15
2020-09-13 19:00:00 34.8 9 Este 26 Este 0 966.4 -- 13
2020-09-13 18:00:00 34.4 10 Este 31 Este 0 966.7 -- 14
2020-09-13 17:00:00 35 12 Este 23 Este 0 966.9 -- 13
2020-09-13 16:00:00 33.3 13 Este 25 Sudeste 0 967.5 -- 15
2020-09-13 15:00:00 33 11 Sudeste 24 Sur 0 968.1 -- 15
2020-09-13 14:00:00 33.7 8 Sudeste 27 Este 0 968.4 -- 15
2020-09-13 13:00:00 31.5 14 Este 23 Este 0 968.6 -- 17
2020-09-13 12:00:00 31.3 6 Nordeste 17 Nordeste 0 968.9 -- 18
2020-09-13 11:00:00 26.5 3 Noroeste 8 Norte 0 969 -- 27
2020-09-13 10:00:00 23.7 2 Noroeste 7 Sudoeste 0 968.9 -- 33
2020-09-13 09:00:00 21.3 3 Sudoeste 8 Oeste 0 968.5 -- 40
2020-09-13 08:00:00 19.7 2 Oeste 6 Sudeste 0 968 -- 41
2020-09-13 07:00:00 20.3 3 Sudeste 8 Sudoeste 0 967.5 -- 37
2020-09-13 06:00:00 20.6 4 Sudoeste 6 Sudeste 0 967.1 -- 38
2020-09-13 05:00:00 22.4 4 Sudeste 6 Sudeste 0 966.9 -- 32
2020-09-13 04:00:00 23 3 Oeste 12 Oeste 0 966.6 -- 30
2020-09-13 03:00:00 23.6 4 Norte 8 Norte 0 966.3 -- 29
2020-09-13 02:00:00 25.1 4 Norte 21 Sur 0 966 -- 25
2020-09-13 01:00:00 23.8 3 Sudeste 9 Nordeste 0 966.1 -- 29
2020-09-13 00:00:00 25.3 5 Sur 10 Oeste 0 965.8 -- 27
2020-09-12 23:00:00 27.2 6 Oeste 9 Oeste 0 965.5 -- 23
2020-09-12 22:00:00 27.4 5 Sudoeste 8 Sudeste 0 964.9 -- 23
2020-09-12 21:00:00 29.3 5 Sur 6 Sur 0 964.2 -- 20
2020-09-12 20:00:00 32.8 5 Sudoeste 16 Noroeste 0 963.9 -- 15
2020-09-12 19:00:00 34.6 11 Noroeste 16 Noroeste 0 963.6 -- 13
2020-09-12 18:00:00 35.4 9 Nordeste 19 Este 0 963.7 -- 12
2020-09-12 17:00:00 35.4 9 Norte 21 Este 0 963.7 -- 12
2020-09-12 16:00:00 35.8 9 Nordeste 23 Este 0 964.1 -- 12
2020-09-12 15:00:00 35.4 6 Noroeste 20 Nordeste 0 964.5 -- 13
2020-09-12 14:00:00 34.3 5 Sudoeste 16 Nordeste 0 965 -- 14
2020-09-12 13:00:00 32.8 7 Norte 13 Norte 0 965.5 -- 16
2020-09-12 12:00:00 29.9 4 Nordeste 10 Nordeste 0 965.6 -- 19
2020-09-12 11:00:00 26.4 3 Norte 7 Noroeste 0 965.5 -- 24
2020-09-12 10:00:00 23.1 2 Norte 5 Nordeste 0 965.2 -- 29
2020-09-12 09:00:00 18.2 2 Sudeste 7 Sudoeste 0 964.6 -- 41
2020-09-12 08:00:00 16.7 4 Sudoeste 6 Oeste 0 964 -- 46
2020-09-12 07:00:00 16.3 2 Este 4 Oeste 0 963.3 -- 44
2020-09-12 06:00:00 18.2 0 Calma 5 Sudeste 0 963.1 -- 43
2020-09-12 05:00:00 19.3 3 Noroeste 5 Sudoeste 0 963 -- 35
2020-09-12 04:00:00 20.5 4 Sudoeste 7 Sudoeste 0 962.9 -- 33
2020-09-12 03:00:00 19.7 4 Oeste 8 Sudoeste 0 962.9 -- 33
2020-09-12 02:00:00 19.8 4 Noroeste 10 Sudeste 0 962.7 -- 32
2020-09-12 01:00:00 22.8 8 Sudeste 9 Sudeste 0 962.6 -- 26
2020-09-12 00:00:00 23 3 Sur 6 Sur 0 962.4 -- 27
2020-09-11 23:00:00 25 4 Sur 7 Sudeste 0 962.1 -- 23
2020-09-11 22:00:00 27.3 4 Este 7 Sudoeste 0 961.7 -- 19
2020-09-11 21:00:00 29.6 4 Noroeste 18 Oeste 0 961.1 -- 17
2020-09-11 20:00:00 32.7 10 Oeste 20 Oeste 0 961 -- 13
2020-09-11 19:00:00 33.2 9 Sudoeste 20 Sudoeste 0 960.9 -- 12
2020-09-11 18:00:00 35 9 Noroeste 24 Oeste 0 961 -- 12
2020-09-11 17:00:00 35.3 11 Noroeste 22 Noroeste 0 961.3 -- 11
2020-09-11 16:00:00 35.1 9 Nordeste 18 Sudeste 0 961.8 -- 12
2020-09-11 15:00:00 35 6 Sudoeste 17 Noroeste 0 962.3 -- 12
2020-09-11 14:00:00 33.9 6 Oeste 14 Nordeste 0 962.8 -- 13
2020-09-11 13:00:00 32.5 4 Noroeste 10 Noroeste 0 963.6 -- 14
2020-09-11 12:00:00 29.5 4 Nordeste 9 Noroeste 0 964 -- 18
2020-09-11 11:00:00 25.9 2 Sudoeste 8 Oeste 0 964 -- 24
2020-09-11 10:00:00 22.1 4 Nordeste 6 Nordeste 0 963.7 -- 30
2020-09-11 09:00:00 17.1 0 Calma 5 Sudoeste 0 963.4 -- 44
2020-09-11 08:00:00 15.1 0 Calma 6 Este 0 963.1 -- 47
2020-09-11 07:00:00 17.2 3 Sur 8 Nordeste 0 963.1 -- 41
2020-09-11 06:00:00 17.4 3 Norte 6 Nordeste 0 963 -- 43
2020-09-11 05:00:00 19.4 4 Sudoeste 6 Sudoeste 0 963 -- 36
2020-09-11 04:00:00 19.1 5 Sudoeste 7 Sudoeste 0 963.1 -- 36
2020-09-11 03:00:00 19.2 0 Calma 6 Sur 0 963.3 -- 37
2020-09-11 02:00:00 19.8 3 Oeste 8 Sudoeste 0 963.8 -- 36
2020-09-11 01:00:00 20 3 Norte 4 Sur 0 963.8 -- 33
2020-09-11 00:00:00 23.9 4 Sur 7 Sudeste 0 964 -- 27
2020-09-10 23:00:00 24.3 6 Sudeste 8 Sudeste 0 964.1 -- 25
2020-09-10 22:00:00 25.8 3 Sudeste 10 Nordeste 0 963.8 -- 23
2020-09-10 21:00:00 28.8 4 Sudoeste 10 Oeste 0 963.2 -- 18
2020-09-10 20:00:00 31.7 7 Oeste 16 Sudoeste 0 963.1 -- 15
2020-09-10 19:00:00 33.5 7 Sudoeste 17 Oeste 0 963.2 -- 13
2020-09-10 18:00:00 33 10 Oeste 19 Oeste 0 963.7 -- 13
2020-09-10 17:00:00 34.2 8 Oeste 21 Oeste 0 964.3 -- 12
2020-09-10 16:00:00 33.8 9 Oeste 23 Noroeste 0 965 -- 12
2020-09-10 15:00:00 33.2 9 Oeste 23 Norte 0 965.7 -- 12
2020-09-10 14:00:00 32.6 6 Oeste 17 Oeste 0 966.5 -- 13
2020-09-10 13:00:00 31.2 6 Norte 16 Noroeste 0 967.3 -- 15
2020-09-10 12:00:00 29.6 3 Sur 8 Este 0 967.8 -- 19
2020-09-10 11:00:00 25.9 3 Nordeste 7 Nordeste 0 967.9 -- 26
2020-09-10 10:00:00 22 3 Nordeste 6 Nordeste 0 967.7 -- 35
2020-09-10 09:00:00 17.3 2 Nordeste 6 Sudeste 0 967.5 -- 49
2020-09-10 08:00:00 16 2 Sudoeste 8 Sudoeste 0 967 -- 55
2020-09-10 07:00:00 14.9 2 Sudoeste 3 Sudoeste 0 966.9 -- 57
2020-09-10 06:00:00 15.9 0 Calma 5 Sur 0 966.7 -- 53
2020-09-10 05:00:00 17.3 3 Sudoeste 6 Sudoeste 0 967 -- 50
2020-09-10 04:00:00 17.8 2 Sur 4 Sur 0 967.3 -- 48
2020-09-10 03:00:00 18 3 Sudoeste 4 Nordeste 0 967.5 -- 47
2020-09-10 02:00:00 20.7 0 Calma 7 Sudoeste 0 967.8 -- 40
2020-09-10 01:00:00 20.8 0 Calma 6 Sudeste 0 967.9 -- 38
2020-09-10 00:00:00 22.8 5 Sur 8 Sudoeste 0 967.8 -- 32
2020-09-09 23:00:00 23.2 4 Sur 8 Nordeste 0 967.7 -- 30
2020-09-09 22:00:00 25.6 3 Sudoeste 9 Oeste 0 967.4 -- 26
2020-09-09 21:00:00 27.5 4 Sudoeste 10 Oeste 0 966.6 -- 23
2020-09-09 20:00:00 30.5 8 Noroeste 17 Oeste 0 966.4 -- 19
2020-09-09 19:00:00 31.4 8 Noroeste 21 Noroeste 0 966.4 -- 19
2020-09-09 18:00:00 31.9 12 Noroeste 21 Noroeste 0 966.6 -- 19
2020-09-09 17:00:00 31.5 6 Norte 26 Noroeste 0 967 -- 19
2020-09-09 16:00:00 31.3 5 Este 19 Sudoeste 0 967.5 -- 19
2020-09-09 15:00:00 30.4 8 Este 16 Este 0 967.9 -- 18
2020-09-09 14:00:00 29.6 5 Nordeste 15 Este 0 968.6 -- 24
2020-09-09 13:00:00 28.1 10 Nordeste 17 Este 0 969.3 -- 31
2020-09-09 12:00:00 27 5 Este 18 Nordeste 0 969.6 -- 34
2020-09-09 11:00:00 25.3 6 Nordeste 12 Nordeste 0 969.8 -- 37
2020-09-09 10:00:00 21.3 3 Oeste 6 Sudoeste 0 969.5 -- 39
2020-09-09 09:00:00 17.3 2 Norte 8 Oeste 0 969.1 -- 46
2020-09-09 08:00:00 15.2 3 Este 8 Oeste 0 968.7 -- 53
2020-09-09 07:00:00 15.7 0 Calma 5 Sudeste 0 968.2 -- 50
2020-09-09 06:00:00 17 3 Sudoeste 6 Oeste 0 968 -- 45
2020-09-09 05:00:00 17.7 3 Sur 8 Sudoeste 0 967.9 -- 43
2020-09-09 04:00:00 18.6 5 Sudoeste 8 Oeste 0 967.9 -- 40
2020-09-09 03:00:00 19.4 4 Oeste 8 Sudoeste 0 967.8 -- 35
2020-09-09 02:00:00 20.4 4 Oeste 7 Oeste 0 967.9 -- 37
2020-09-09 01:00:00 20.9 3 Noroeste 11 Sudoeste 0 967.9 -- 30
2020-09-09 00:00:00 22.7 6 Sudoeste 17 Este 0 968 -- 26
2020-09-08 23:00:00 25 12 Este 18 Este 0 967.7 -- 22
2020-09-08 22:00:00 25.3 9 Este 15 Este 0 967.2 -- 22
2020-09-08 21:00:00 26.9 5 Este 15 Nordeste 0 966.6 -- 18
2020-09-08 20:00:00 29.5 8 Nordeste 15 Nordeste 0 966.3 -- 14
2020-09-08 19:00:00 30.8 6 Nordeste 19 Nordeste 0 966.1 -- 13
2020-09-08 18:00:00 31 12 Nordeste 26 Nordeste 0 966.4 -- 13
2020-09-08 17:00:00 30.6 10 Este 22 Nordeste 0 966.5 -- 14
2020-09-08 16:00:00 30.6 9 Nordeste 25 Este 0 967.2 -- 15
2020-09-08 15:00:00 29.6 8 Nordeste 23 Este 0 967.7 -- 18
2020-09-08 14:00:00 28.1 9 Este 29 Este 0 968.1 -- 21
2020-09-08 13:00:00 26.7 14 Este 29 Nordeste 0 968.7 -- 28
2020-09-08 12:00:00 24.9 12 Nordeste 27 Nordeste 0 969 -- 35
2020-09-08 11:00:00 23 13 Nordeste 24 Nordeste 0 969.2 -- 42
2020-09-08 10:00:00 21 15 Nordeste 24 Nordeste 0 969.2 -- 50
2020-09-08 09:00:00 18.6 4 Norte 14 Este 0 968.9 -- 55
2020-09-08 08:00:00 15.7 0 Calma 12 Nordeste 0 968.1 -- 57
2020-09-08 07:00:00 16.1 6 Norte 12 Nordeste 0 967.6 -- 49
2020-09-08 06:00:00 17.6 3 Noroeste 9 Sudeste 0 967.3 -- 40
2020-09-08 05:00:00 17.4 6 Norte 7 Norte 0 967.2 -- 28
2020-09-08 04:00:00 18.1 4 Este 7 Este 0 967.2 -- 26
2020-09-08 03:00:00 19.1 2 Oeste 8 Sudeste 0 967.2 -- 26
2020-09-08 02:00:00 21.3 6 Este 11 Nordeste 0 967 -- 19
2020-09-08 01:00:00 20.5 7 Norte 9 Nordeste 0 966.8 -- 20
2020-09-08 00:00:00 22.9 5 Nordeste 22 Este 0 966.8 -- 16
2020-09-07 23:00:00 25.1 7 Este 18 Este 0 966.4 -- 14
2020-09-07 22:00:00 25.7 9 Nordeste 25 Nordeste 0 965.6 -- 15
2020-09-07 21:00:00 28.2 14 Este 26 Nordeste 0 964.4 -- 15
2020-09-07 20:00:00 31.1 18 Nordeste 28 Norte 0 963.7 -- 14
2020-09-07 19:00:00 33.3 17 Norte 27 Norte 0 963.5 -- 14
2020-09-07 18:00:00 34.4 14 Norte 31 Norte 0 963.2 -- 13
2020-09-07 17:00:00 34.4 16 Norte 28 Norte 0 963.4 -- 14
2020-09-07 16:00:00 34.6 16 Norte 33 Norte 0 963.7 -- 14
2020-09-07 15:00:00 34.3 10 Norte 22 Nordeste 0 964.4 -- 14
2020-09-07 14:00:00 32.7 7 Este 15 Nordeste 0 964.8 -- 15
2020-09-07 13:00:00 31.4 9 Nordeste 18 Nordeste 0 965.2 -- 17
2020-09-07 12:00:00 30.7 8 Sudeste 18 Este 0 965.4 -- 18
2020-09-07 11:00:00 28.3 5 Norte 10 Norte 0 965.2 -- 23
2020-09-07 10:00:00 24.8 0 Calma 6 Nordeste 0 964.9 -- 29
2020-09-07 09:00:00 20.6 3 Nordeste 8 Sur 0 964.5 -- 37
2020-09-07 08:00:00 18.8 4 Sur 8 Sudoeste 0 964.3 -- 43
2020-09-07 07:00:00 18.9 3 Oeste 8 Sudoeste 0 963.7 -- 40
2020-09-07 06:00:00 20.4 7 Sudoeste 10 Sudoeste 0 963.4 -- 36
2020-09-07 05:00:00 19.3 3 Norte 7 Norte 0 963.3 -- 38
2020-09-07 04:00:00 21.9 4 Sur 8 Sudeste 0 963.4 -- 33
2020-09-07 03:00:00 21.1 2 Sudoeste 10 Sudoeste 0 963.6 -- 33
2020-09-07 02:00:00 22.1 6 Sur 15 Nordeste 0 963.6 -- 30
2020-09-07 01:00:00 22.9 4 Nordeste 9 Norte 0 963.5 -- 28
2020-09-07 00:00:00 25.7 4 Sur 7 Sur 0 963.1 -- 24
2020-09-06 23:00:00 27.1 3 Sudeste 6 Noroeste 0 963 -- 21
2020-09-06 22:00:00 29.6 3 Noroeste 14 Oeste 0 962.5 -- 18
2020-09-06 21:00:00 31.4 7 Oeste 22 Oeste 0 961.9 -- 14
2020-09-06 20:00:00 34.1 12 Oeste 23 Oeste 0 961.6 -- 13
2020-09-06 19:00:00 35.8 7 Noroeste 19 Oeste 0 961.7 -- 11
2020-09-06 18:00:00 36.8 5 Norte 23 Noroeste 0 961.9 -- 10
2020-09-06 17:00:00 36.5 6 Sudoeste 21 Oeste 0 962.4 -- 11
2020-09-06 16:00:00 35.7 11 Oeste 19 Oeste 0 963 -- 12
2020-09-06 15:00:00 35 6 Sur 18 Oeste 0 963.5 -- 14
2020-09-06 14:00:00 33.8 7 Nordeste 14 Norte 0 964 -- 15
2020-09-06 13:00:00 32.3 3 Sudoeste 12 Norte 0 964.5 -- 19
2020-09-06 12:00:00 30.4 5 Oeste 11 Noroeste 0 964.7 -- 22
2020-09-06 11:00:00 27.4 4 Nordeste 8 Nordeste 0 964.8 -- 24
2020-09-06 10:00:00 24 3 Nordeste 6 Norte 0 964.7 -- 28
2020-09-06 09:00:00 19.5 4 Sudoeste 5 Oeste 0 964.6 -- 39
2020-09-06 08:00:00 16.8 3 Este 7 Sur 0 964.1 -- 46
2020-09-06 07:00:00 17.8 3 Sur 8 Norte 0 963.8 -- 44
2020-09-06 06:00:00 18.7 3 Nordeste 6 Sur 0 963.3 -- 40
2020-09-06 05:00:00 20.1 5 Sudoeste 6 Sudoeste 0 963.4 -- 36
2020-09-06 04:00:00 20 3 Sur 13 Sudoeste 0 963.6 -- 37
2020-09-06 03:00:00 20.4 3 Norte 7 Norte 0 963.8 -- 36
2020-09-06 02:00:00 21.2 6 Sudoeste 8 Sudoeste 0 964 -- 34
2020-09-06 01:00:00 22.7 4 Sudeste 6 Sudoeste 0 964 -- 31
2020-09-06 00:00:00 25.2 5 Sudoeste 8 Sudoeste 0 964 -- 26
2020-09-05 23:00:00 24.8 5 Nordeste 9 Norte 0 964.1 -- 20
2020-09-05 22:00:00 28.1 2 Sudeste 7 Sudeste 0 963.8 -- 19
2020-09-05 21:00:00 31.1 6 Sudoeste 9 Sudoeste 0 963.1 -- 14
2020-09-05 20:00:00 34.6 6 Nordeste 17 Norte 0 962.9 -- 9
2020-09-05 19:00:00 35.8 8 Noroeste 22 Norte 0 963.3 -- 9
2020-09-05 18:00:00 36.3 4 Sur 22 Norte 0 963.7 -- 8
2020-09-05 17:00:00 35.5 5 Sudeste 22 Oeste 0 964.2 -- 8
2020-09-05 16:00:00 35.1 5 Norte 19 Norte 0 965.1 -- 10
2020-09-05 15:00:00 33.6 6 Este 18 Nordeste 0 966.1 -- 13
2020-09-05 14:00:00 33.3 6 Oeste 14 Oeste 0 966.8 -- 13
2020-09-05 13:00:00 31.1 6 Este 14 Este 0 967.4 -- 17
2020-09-05 12:00:00 29.4 4 Noroeste 8 Noroeste 0 967.9 -- 21
2020-09-05 11:00:00 26.3 3 Oeste 8 Nordeste 0 967.9 -- 22
2020-09-05 10:00:00 23.1 3 Nordeste 6 Norte 0 968 -- 27
2020-09-05 09:00:00 18 2 Oeste 4 Este 0 967.9 -- 39
2020-09-05 08:00:00 15.9 0 Calma 9 Sudoeste 0 967.4 -- 44
2020-09-05 07:00:00 15.8 0 Calma 8 Nordeste 0 967.1 -- 42
2020-09-05 06:00:00 17.6 2 Este 5 Sudeste 0 967.1 -- 35
2020-09-05 05:00:00 19.4 4 Sur 6 Sudoeste 0 967.3 -- 31
2020-09-05 04:00:00 19.8 0 Calma 8 Sudoeste 0 967.5 -- 29
2020-09-05 03:00:00 20.3 2 Este 9 Noroeste 0 967.8 -- 27
2020-09-05 02:00:00 20.8 4 Norte 11 Sudeste 0 968 -- 26
2020-09-05 01:00:00 25 9 Sudeste 13 Sudeste 0 968.3 -- 18
2020-09-05 00:00:00 23.5 2 Sur 6 Nordeste 0 968 -- 20
2020-09-04 23:00:00 25.5 3 Nordeste 6 Norte 0 967.9 -- 18
2020-09-04 22:00:00 27.5 4 Sudeste 10 Sur 0 967.4 -- 13
2020-09-04 21:00:00 31.5 6 Sudeste 15 Este 0 966.8 -- 11
2020-09-04 20:00:00 34.1 8 Sudeste 21 Sudeste 0 966.6 -- 11
2020-09-04 19:00:00 35.2 7 Nordeste 23 Sur 0 966.8 -- 11
2020-09-04 18:00:00 35.8 7 Este 18 Nordeste 0 966.8 -- 11
2020-09-04 17:00:00 35.5 11 Este 25 Este 0 967.3 -- 10
2020-09-04 16:00:00 35.2 15 Nordeste 30 Este 0 968.1 -- 13
2020-09-04 15:00:00 33.8 8 Este 22 Sudeste 0 969 -- 17
2020-09-04 14:00:00 33.2 11 Norte 22 Este 0 969.7 -- 19
2020-09-04 13:00:00 31.2 12 Nordeste 19 Nordeste 0 970.5 -- 21
2020-09-04 12:00:00 29.7 5 Norte 13 Norte 0 971 -- 22
2020-09-04 11:00:00 26.9 3 Nordeste 7 Nordeste 0 971.1 -- 24
2020-09-04 10:00:00 23 4 Noroeste 7 Noroeste 0 970.9 -- 30
2020-09-04 09:00:00 19.9 2 Oeste 6 Sudeste 0 970.3 -- 40
2020-09-04 08:00:00 17.3 0 Calma 5 Oeste 0 969.8 -- 44
2020-09-04 07:00:00 17.5 0 Calma 6 Sur 0 969.1 -- 48
2020-09-04 06:00:00 19.1 3 Sur 6 Sudoeste 0 969 -- 37
2020-09-04 05:00:00 20.1 3 Sur 7 Sudeste 0 969.1 -- 34
2020-09-04 04:00:00 20.7 3 Sudoeste 13 Oeste 0 968.9 -- 33
2020-09-04 03:00:00 22.2 6 Oeste 15 Sudeste 0 968.9 -- 29
2020-09-04 02:00:00 26.6 9 Sudeste 23 Sudeste 0 969 -- 22
2020-09-04 01:00:00 24.1 5 Sudeste 11 Sudeste 0 969 -- 23
2020-09-04 00:00:00 24.8 6 Sudeste 13 Sudeste 0 968.5 -- 21
2020-09-03 23:00:00 25.3 5 Noroeste 12 Noroeste 0 968.2 -- 21
2020-09-03 22:00:00 28.8 7 Sudeste 21 Sudeste 0 967.5 -- 15
2020-09-03 21:00:00 31.1 7 Sudeste 16 Nordeste 0 966.9 -- 13
2020-09-03 20:00:00 33.7 8 Nordeste 17 Noroeste 0 966.5 -- 12
2020-09-03 19:00:00 34.9 10 Norte 17 Este 0 966.4 -- 11
2020-09-03 18:00:00 35.7 4 Norte 19 Sudeste 0 966.5 -- 10
2020-09-03 17:00:00 34.8 6 Sudeste 16 Noroeste 0 966.9 -- 11
2020-09-03 16:00:00 34.5 5 Nordeste 20 Nordeste 0 967.3 -- 11
2020-09-03 15:00:00 33.8 10 Nordeste 23 Este 0 967.9 -- 12
2020-09-03 14:00:00 33.2 8 Nordeste 18 Nordeste 0 968.2 -- 13
2020-09-03 13:00:00 31.7 6 Noroeste 15 Norte 0 968.5 -- 16
2020-09-03 12:00:00 29.2 3 Sudeste 9 Nordeste 0 968.9 -- 19
2020-09-03 11:00:00 25.5 3 Oeste 7 Norte 0 968.7 -- 22
2020-09-03 10:00:00 21.9 3 Nordeste 8 Norte 0 968.4 -- 27
2020-09-03 09:00:00 18 0 Calma 7 Sudoeste 0 967.9 -- 38
2020-09-03 08:00:00 16 5 Sudoeste 8 Sudoeste 0 967.3 -- 41
2020-09-03 07:00:00 17.3 4 Oeste 8 Sudoeste 0 966.6 -- 36
2020-09-03 06:00:00 15.9 2 Oeste 5 Oeste 0 966.3 -- 39
2020-09-03 05:00:00 17.8 3 Sur 6 Sudoeste 0 965.9 -- 37
2020-09-03 04:00:00 19.3 5 Sudoeste 7 Sudoeste 0 966 -- 32
2020-09-03 03:00:00 20 4 Sudoeste 6 Oeste 0 965.9 -- 28
2020-09-03 02:00:00 19.4 3 Sudoeste 5 Sudeste 0 965.8 -- 32
2020-09-03 01:00:00 20.6 2 Sudoeste 5 Sudoeste 0 965.5 -- 28
2020-09-03 00:00:00 22 2 Sur 8 Sudeste 0 965.4 -- 24
2020-09-02 23:00:00 23.8 4 Sur 9 Este 0 965.1 -- 20
2020-09-02 22:00:00 25.6 3 Sudoeste 10 Oeste 0 964.3 -- 18
2020-09-02 21:00:00 28.7 8 Oeste 16 Noroeste 0 963.4 -- 13
2020-09-02 20:00:00 32.4 9 Noroeste 18 Noroeste 0 963 -- 11
2020-09-02 19:00:00 33.6 9 Noroeste 19 Noroeste 0 962.6 -- 10
2020-09-02 18:00:00 34.1 10 Noroeste 23 Noroeste 0 962.6 -- 10
2020-09-02 17:00:00 33.4 5 Sur 21 Este 0 962.5 -- 10
2020-09-02 16:00:00 33.1 4 Sur 18 Nordeste 0 962.8 -- 10
2020-09-02 15:00:00 33 4 Norte 20 Oeste 0 963.1 -- 11
2020-09-02 14:00:00 32.1 5 Sudoeste 22 Nordeste 0 963.2 -- 11
2020-09-02 13:00:00 30.5 7 Este 16 Norte 0 963.7 -- 13
2020-09-02 12:00:00 28.3 6 Este 13 Nordeste 0 963.9 -- 14
2020-09-02 11:00:00 24.9 3 Nordeste 7 Norte 0 963.7 -- 19
2020-09-02 10:00:00 21.3 2 Noroeste 5 Nordeste 0 963.1 -- 27
2020-09-02 09:00:00 16.6 3 Norte 7 Sudoeste 0 962.8 -- 37
2020-09-02 08:00:00 12.4 2 Sudoeste 5 Sudoeste 0 962.3 -- 47
2020-09-02 07:00:00 13.9 3 Este 8 Sudoeste 0 961.8 -- 41
2020-09-02 06:00:00 15 0 Calma 6 Sudoeste 0 961.5 -- 40
2020-09-02 05:00:00 16.2 5 Sudoeste 7 Sudoeste 0 961.2 -- 34
2020-09-02 04:00:00 16.6 3 Noroeste 6 Sur 0 960.9 -- 33
2020-09-02 03:00:00 17.5 2 Sudoeste 8 Sudeste 0 960.9 -- 30
2020-09-02 02:00:00 18.4 3 Nordeste 7 Nordeste 0 960.9 -- 28
2020-09-02 01:00:00 20.5 0 Calma 9 Sudoeste 0 960.6 -- 23
2020-09-02 00:00:00 20.9 2 Sudoeste 7 Sudeste 0 960.6 -- 23
2020-09-01 23:00:00 23.4 4 Sur 7 Sur 0 960.4 -- 18
2020-09-01 22:00:00 24.9 4 Sur 12 Oeste 0 960.2 -- 17
2020-09-01 21:00:00 27.2 6 Oeste 15 Oeste 0 959.7 -- 16
2020-09-01 20:00:00 28.7 12 Oeste 21 Oeste 0 959.4 -- 13
2020-09-01 19:00:00 29.8 8 Sudoeste 21 Oeste 0 959.5 -- 11
2020-09-01 18:00:00 29.5 13 Oeste 24 Oeste 0 959.8 -- 11
2020-09-01 17:00:00 31.6 13 Oeste 29 Oeste 0 959.8 -- 11
2020-09-01 16:00:00 32 8 Oeste 20 Nordeste 0 960.2 -- 10
2020-09-01 15:00:00 30.2 10 Noroeste 18 Noroeste 0 961.1 -- 12
2020-09-01 14:00:00 30.3 10 Noroeste 21 Noroeste 0 961.6 -- 12
2020-09-01 13:00:00 29.1 3 Sur 11 Nordeste 0 962.1 -- 13
2020-09-01 12:00:00 24.9 3 Noroeste 9 Oeste 0 962.9 -- 20
2020-09-01 11:00:00 21.9 4 Norte 7 Oeste 0 963.1 -- 26
2020-09-01 10:00:00 19 4 Nordeste 9 Sudoeste 0 962.7 -- 32
2020-09-01 09:00:00 16.2 4 Sudeste 8 Noroeste 0 962.8 -- 40
2020-09-01 08:00:00 16.1 2 Nordeste 9 Norte 0 962.6 -- 38
2020-09-01 07:00:00 16.5 2 Sudoeste 7 Sudeste 0 962.8 -- 38
2020-09-01 06:00:00 16.3 4 Oeste 8 Oeste 0 962.9 -- 39
2020-09-01 05:00:00 16.1 3 Sudoeste 7 Sudoeste 0 963.1 -- 39
2020-09-01 04:00:00 15.5 0 Calma 3 Oeste 0 963.5 -- 47
2020-09-01 03:00:00 16.2 0 Calma 7 Sudeste 0 963.9 -- 33
2020-09-01 02:00:00 17.8 3 Sur 9 Sudeste 0 964.2 -- 30
2020-09-01 01:00:00 19.3 3 Sur 8 Sudeste 0 964.4 -- 27
2020-09-01 00:00:00 19.8 5 Sur 7 Sudeste 0 964.3 -- 25
2020-08-31 23:00:00 21.7 3 Sudeste 8 Sudeste 0 964.2 -- 20
2020-08-31 22:00:00 22.2 4 Este 9 Este 0 963.7 -- 18
2020-08-31 21:00:00 26.2 6 Oeste 11 Noroeste 0 963.3 -- 13
2020-08-31 20:00:00 29.2 9 Noroeste 17 Oeste 0 963.5 -- 10
2020-08-31 19:00:00 30.3 6 Noroeste 21 Noroeste 0 963.8 -- 11
2020-08-31 18:00:00 30.6 12 Oeste 19 Noroeste 0 963.9 -- 11
2020-08-31 17:00:00 30.5 8 Noroeste 21 Noroeste 0 964.4 -- 11
2020-08-31 16:00:00 29.9 10 Norte 36 Oeste 0 965.1 -- 11
2020-08-31 15:00:00 29.5 6 Sudeste 19 Este 0 965.9 -- 11
2020-08-31 14:00:00 28.6 6 Norte 18 Norte 0 966.4 -- 13
2020-08-31 13:00:00 27.5 9 Norte 19 Nordeste 0 967.1 -- 13
2020-08-31 12:00:00 25.5 4 Sudeste 11 Este 0 967.3 -- 18
2020-08-31 11:00:00 22 3 Este 6 Este 0 967.5 -- 24
2020-08-31 10:00:00 18.7 4 Oeste 9 Oeste 0 967.4 -- 30
2020-08-31 09:00:00 16.3 0 Calma 7 Sudeste 0 967 -- 34
2020-08-31 08:00:00 12.5 3 Noroeste 7 Sur 0 966.4 -- 45
2020-08-31 07:00:00 13.1 4 Sur 7 Sudoeste 0 965.8 -- 41
2020-08-31 06:00:00 13.5 5 Sudoeste 7 Sudoeste 0 965.7 -- 41
2020-08-31 05:00:00 14 2 Sur 6 Sudoeste 0 965.7 -- 39
2020-08-31 04:00:00 14.7 3 Sur 9 Sudoeste 0 965.9 -- 36
2020-08-31 03:00:00 15.7 4 Sur 6 Sudeste 0 965.8 -- 31
2020-08-31 02:00:00 16.5 4 Sudoeste 12 Sur 0 965.8 -- 29
2020-08-31 01:00:00 16.5 5 Noroeste 12 Norte 0 965.5 -- 29
2020-08-31 00:00:00 18.3 4 Sudoeste 8 Oeste 0 964.9 -- 26
2020-08-30 23:00:00 20 3 Norte 9 Este 0 964.5 -- 23
2020-08-30 22:00:00 21.3 2 Sur 13 Norte 0 963.5 -- 20
2020-08-30 21:00:00 23.2 8 Nordeste 23 Norte 0 962.5 -- 17
2020-08-30 20:00:00 26.1 13 Norte 23 Norte 0 961.9 -- 15
2020-08-30 19:00:00 27.3 11 Nordeste 22 Nordeste 0 961.4 -- 14
2020-08-30 18:00:00 28.1 8 Norte 34 Norte 0 961.3 -- 14
2020-08-30 17:00:00 27.1 9 Sudeste 20 Nordeste 0 961.5 -- 14
2020-08-30 16:00:00 27.1 5 Sur 18 Noroeste 0 962 -- 14
2020-08-30 15:00:00 26.3 8 Oeste 29 Noroeste 0 962.4 -- 17
2020-08-30 14:00:00 25.9 9 Norte 19 Norte 0 962.6 -- 20
2020-08-30 13:00:00 24.8 6 Este 24 Este 0 963 -- 22
2020-08-30 12:00:00 23.5 8 Nordeste 21 Nordeste 0 963.3 -- 24
2020-08-30 11:00:00 22 13 Nordeste 22 Nordeste 0 963.1 -- 27
2020-08-30 10:00:00 20.1 4 Este 14 Nordeste 0 962.9 -- 32
2020-08-30 09:00:00 16.1 2 Nordeste 6 Sudoeste 0 962.4 -- 45
2020-08-30 08:00:00 13.1 3 Sudoeste 6 Oeste 0 962.1 -- 57
2020-08-30 07:00:00 13.5 2 Noroeste 6 Oeste 0 961.8 -- 55
2020-08-30 06:00:00 14.1 2 Este 6 Norte 0 961.4 -- 49
2020-08-30 05:00:00 15.8 2 Este 7 Sudoeste 0 961.2 -- 42
2020-08-30 04:00:00 16.2 2 Noroeste 6 Oeste 0 960.9 -- 41
2020-08-30 03:00:00 16.5 3 Sudoeste 10 Sudeste 0 960.9 -- 37
2020-08-30 02:00:00 17 3 Oeste 6 Oeste 0 960.6 -- 36
2020-08-30 01:00:00 17.3 4 Sur 6 Noroeste 0 960.2 -- 33
2020-08-30 00:00:00 18.8 3 Oeste 6 Oeste 0 959.9 -- 28
2020-08-29 23:00:00 19.7 3 Oeste 6 Oeste 0 959.3 -- 26
2020-08-29 22:00:00 21.2 0 Calma 16 Norte 0 958.4 -- 22
2020-08-29 21:00:00 23.6 14 Nordeste -- -- 0 957.7 -- 19
2020-08-29 20:00:00 26.1 17 Norte 28 Norte 0 957.2 -- 15
2020-08-29 19:00:00 27.4 12 Norte 28 Norte 0 956.9 -- 13
2020-08-29 18:00:00 27.5 18 Nordeste 31 Norte 0 956.6 -- 13
2020-08-29 17:00:00 28.2 12 Norte 34 Norte 0 956.6 -- 13
2020-08-29 16:00:00 27.6 13 Noroeste 31 Noroeste 0 956.9 -- 14
2020-08-29 15:00:00 26.8 15 Norte 37 Norte 0 957.1 -- 16
2020-08-29 14:00:00 25.6 13 Noroeste 39 Nordeste 0 957.4 -- 20
2020-08-29 13:00:00 24.5 12 Noroeste 27 Noroeste 0 957.6 -- 22
2020-08-29 12:00:00 24.3 10 Norte 38 Nordeste 0 957.5 -- 23
2020-08-29 11:00:00 22.1 6 Norte 21 Nordeste 0 957.2 -- 31
2020-08-29 10:00:00 19.9 2 Noroeste 8 Norte 0 956.8 -- 35
2020-08-29 09:00:00 17 3 Sur 10 Sudeste 0 956.5 -- 42
2020-08-29 08:00:00 14.8 5 Sudeste 16 Sur 0 956 -- 49
2020-08-29 07:00:00 15.7 7 Sur 12 Sur 0 955.3 -- 47
2020-08-29 06:00:00 16.7 5 Sur 14 Oeste 0 955 -- 47
2020-08-29 05:00:00 17.3 4 Sudeste 19 Sur 0 955 -- 49
2020-08-29 04:00:00 18.6 10 Sudoeste 24 Sudoeste 0 955.1 -- 45
2020-08-29 03:00:00 19.4 14 Sudoeste 28 Sudoeste 0 955.4 -- 44
2020-08-29 02:00:00 20.3 12 Oeste 28 Oeste 0 955.6 -- 39
2020-08-29 01:00:00 21.4 14 Oeste 30 Oeste 0 955.8 -- 35
2020-08-29 00:00:00 23 16 Sudoeste -- -- 0 956 -- 28
2020-08-28 23:00:00 24.6 15 Oeste -- -- 0 956.2 -- 21
2020-08-28 22:00:00 26.4 15 Sudoeste -- -- 0 956 -- 12
2020-08-28 21:00:00 28.3 -- -- -- -- 0 955.6 -- 10
2020-08-28 20:00:00 30.9 20 Oeste 39 Oeste 0 955.5 -- 14
2020-08-28 19:00:00 31.8 22 Oeste -- -- 0 955.7 -- 14
2020-08-28 18:00:00 32.3 -- -- -- -- 0 956 -- 18
2020-08-28 17:00:00 32.3 -- -- -- -- 0 956.7 -- 17
2020-08-28 16:00:00 31.9 -- -- -- -- 0 957.2 -- 20
2020-08-28 15:00:00 31.3 -- -- -- -- 0 958.1 -- 26
2020-08-28 14:00:00 30.6 18 Oeste -- -- 0 958.6 -- 27
2020-08-28 13:00:00 28.7 19 Oeste 37 Oeste 0 959.3 -- 34
2020-08-28 12:00:00 27 17 Oeste 32 Oeste 0 959.8 -- 40
2020-08-28 11:00:00 25.4 11 Oeste 22 Oeste 0 959.8 -- 48
2020-08-28 10:00:00 23.3 8 Oeste 20 Oeste 0 959.9 -- 57
2020-08-28 09:00:00 21.7 6 Sudoeste 10 Sur 0 960 -- 65
2020-08-28 08:00:00 20.7 5 Sudoeste 14 Sudoeste 0 959.9 -- 68
2020-08-28 07:00:00 21.1 9 Oeste 18 Oeste 0 959.8 -- 66
2020-08-28 06:00:00 22.4 4 Sudoeste 11 Sudoeste 0 959.8 -- 60
2020-08-28 05:00:00 23 0 Calma 8 Sudoeste 0 960 -- 55
2020-08-28 04:00:00 24.4 5 Sudoeste 9 Oeste 0 960.3 -- 48
2020-08-28 03:00:00 25.4 4 Sur 10 Sudoeste 0 960.8 -- 44
2020-08-28 02:00:00 27.3 4 Sudoeste 28 Sudoeste 0 961.3 -- 39
2020-08-28 01:00:00 28.2 10 Oeste 19 Sudoeste 0 961.4 -- 36
2020-08-28 00:00:00 29.2 8 Oeste 31 Oeste 0 961.6 -- 33
2020-08-27 23:00:00 30.7 15 Oeste 33 Oeste 0 961.7 -- 30
2020-08-27 22:00:00 31.5 14 Oeste 26 Oeste 0 961.6 -- 27
2020-08-27 21:00:00 32.8 10 Oeste 22 Oeste 0 961.6 -- 23
2020-08-27 20:00:00 35.8 12 Oeste 24 Oeste 0 961.5 -- 14
2020-08-27 19:00:00 36.8 13 Oeste 30 Oeste 0 962.1 -- 13
2020-08-27 18:00:00 37.3 14 Oeste 26 Oeste 0 962.6 -- 15
2020-08-27 17:00:00 37.6 13 Oeste 24 Oeste 0 963.1 -- 12
2020-08-27 16:00:00 37.6 11 Oeste 22 Oeste 0 964.1 -- 13
2020-08-27 15:00:00 36.7 6 Oeste 18 Oeste 0 964.8 -- 13
2020-08-27 14:00:00 34.9 11 Oeste 22 Oeste 0 965.7 -- 19
2020-08-27 13:00:00 34.6 5 Sudoeste 14 Noroeste 0 966.1 -- 21
2020-08-27 12:00:00 31.4 6 Noroeste 11 Noroeste 0 966.6 -- 22
2020-08-27 11:00:00 28.3 3 Noroeste 7 Oeste 0 966.8 -- 25
2020-08-27 10:00:00 24.8 4 Norte 8 Norte 0 966.7 -- 29
2020-08-27 09:00:00 20.5 3 Norte 4 Sudeste 0 966.5 -- 41
2020-08-27 08:00:00 17.6 0 Calma 5 Sur 0 966.5 -- 49
2020-08-27 07:00:00 19.8 3 Sur 4 Sur 0 966.3 -- 39
2020-08-27 06:00:00 19.7 3 Noroeste 6 Oeste 0 966.3 -- 36
2020-08-27 05:00:00 20.8 5 Oeste 7 Oeste 0 966.3 -- 34
2020-08-27 04:00:00 21.8 0 Calma 8 Sur 0 966.4 -- 34
2020-08-27 03:00:00 22.8 5 Sur 8 Sur 0 966.6 -- 30
2020-08-27 02:00:00 23.9 3 Oeste 7 Oeste 0 966.8 -- 29
2020-08-27 01:00:00 23.4 3 Sudeste 5 Sudeste 0 966.8 -- 29
2020-08-27 00:00:00 26.7 4 Sudoeste 7 Sudoeste 0 966.8 -- 23
2020-08-26 23:00:00 28.6 4 Sur 9 Sudoeste 0 966.6 -- 18
2020-08-26 22:00:00 29.6 4 Sur 9 Sudoeste 0 966.1 -- 20
2020-08-26 21:00:00 33.3 6 Oeste 19 Oeste 0 965.7 -- 13
2020-08-26 20:00:00 36.2 13 Oeste 25 Noroeste 0 965.6 -- 12
2020-08-26 19:00:00 37.1 13 Oeste 29 Oeste 0 965.6 -- 10
2020-08-26 18:00:00 37.5 14 Oeste 29 Oeste 0 965.8 -- 9
2020-08-26 17:00:00 38.1 15 Oeste 27 Oeste 0 966 -- 10
2020-08-26 16:00:00 37.9 12 Oeste 26 Oeste 0 966.3 -- 12
2020-08-26 15:00:00 37.4 13 Oeste 25 Oeste 0 966.5 -- 13
2020-08-26 14:00:00 36.6 10 Oeste 20 Oeste 0 967 -- 13
2020-08-26 13:00:00 35.6 6 Oeste 14 Oeste 0 967.3 -- 14
2020-08-26 12:00:00 32.8 4 Oeste 8 Noroeste 0 967.4 -- 18
2020-08-26 11:00:00 29.3 2 Este 6 Nordeste 0 967.1 -- 24
2020-08-26 10:00:00 25.4 2 Nordeste 6 Sudoeste 0 966.7 -- 33
2020-08-26 09:00:00 21.8 3 Norte 5 Sudoeste 0 966.3 -- 42
2020-08-26 08:00:00 18.6 0 Calma 6 Sur 0 966 -- 51
2020-08-26 07:00:00 19.8 2 Sur 4 Sur 0 965.6 -- 50
2020-08-26 06:00:00 21 0 Calma 4 Noroeste 0 965.4 -- 43
2020-08-26 05:00:00 22.4 3 Sudoeste 6 Oeste 0 965.2 -- 36
2020-08-26 04:00:00 23.5 8 Sudoeste 10 Nordeste 0 965 -- 31
2020-08-26 03:00:00 26.3 3 Sudoeste 13 Sur 0 964.9 -- 25
2020-08-26 02:00:00 24.3 5 Sudoeste 9 Sudoeste 0 964.8 -- 31
2020-08-26 01:00:00 24.3 0 Calma 6 Sur 0 964.7 -- 32
2020-08-26 00:00:00 25.9 3 Sur 5 Sudeste 0 964.6 -- 24
2020-08-25 23:00:00 27.7 4 Sudeste 6 Sur 0 964.3 -- 20
2020-08-25 22:00:00 30.4 2 Sur 8 Sudeste 0 963.5 -- 17
2020-08-25 21:00:00 33.8 7 Oeste 18 Oeste 0 962.8 -- 13
2020-08-25 20:00:00 36.8 11 Oeste 18 Oeste 0 962.5 -- 12
2020-08-25 19:00:00 37.9 9 Sudoeste 23 Oeste 0 962.6 -- 11
2020-08-25 18:00:00 38.5 14 Noroeste 22 Norte 0 962.5 -- 10
2020-08-25 17:00:00 38.8 8 Noroeste 20 Noroeste 0 962.8 -- 10
2020-08-25 16:00:00 38 9 Norte 23 Noroeste 0 963.2 -- 10
2020-08-25 15:00:00 37.1 5 Nordeste 24 Oeste 0 963.8 -- 11
2020-08-25 14:00:00 36.1 9 Noroeste 25 Oeste 0 964.3 -- 13
2020-08-25 13:00:00 34.1 5 Noroeste 14 Oeste 0 964.5 -- 15
2020-08-25 12:00:00 31.6 3 Nordeste 8 Norte 0 964.8 -- 18
2020-08-25 11:00:00 27.8 3 Este 7 Norte 0 964.7 -- 22
2020-08-25 10:00:00 24 3 Nordeste 6 Nordeste 0 964.4 -- 32
2020-08-25 09:00:00 20.2 3 Oeste 7 Oeste 0 964.2 -- 39
2020-08-25 08:00:00 17.4 4 Noroeste 7 Noroeste 0 963.5 -- 45
2020-08-25 07:00:00 17.6 2 Sudeste 5 Sudeste 0 962.9 -- 42
2020-08-25 06:00:00 19.5 3 Sur 6 Sur 0 963.1 -- 38
2020-08-25 05:00:00 19.7 3 Sudeste 17 Noroeste 0 963.1 -- 38
2020-08-25 04:00:00 21.2 4 Sudoeste 9 Sudoeste 0 962.7 -- 31
2020-08-25 03:00:00 21 2 Este 6 Norte 0 962.8 -- 38
2020-08-25 02:00:00 22.4 7 Oeste 14 Oeste 0 963 -- 27
2020-08-25 01:00:00 21.9 3 Sudeste 6 Sur 0 962.5 -- 31
2020-08-25 00:00:00 23.7 0 Calma 6 Sudeste 0 962.6 -- 26
2020-08-24 23:00:00 26.9 5 Sur 7 Sur 0 962.6 -- 19
2020-08-24 22:00:00 28.4 5 Sur 8 Sur 0 962.1 -- 17
2020-08-24 21:00:00 32.4 4 Oeste 18 Oeste 0 961.5 -- 13
2020-08-24 20:00:00 34.9 10 Sudoeste 15 Oeste 0 961.4 -- 9
2020-08-24 19:00:00 37.1 4 Sudoeste 14 Sur 0 961.6 -- 8
2020-08-24 18:00:00 37.6 6 Noroeste 19 Oeste 0 962 -- 7
2020-08-24 17:00:00 37.6 6 Noroeste 21 Oeste 0 962.3 -- 8
2020-08-24 16:00:00 37.1 8 Noroeste 15 Sur 0 962.9 -- 9
2020-08-24 15:00:00 36 6 Este 18 Oeste 0 963.3 -- 8
2020-08-24 14:00:00 35.4 7 Nordeste 17 Nordeste 0 963.8 -- 9
2020-08-24 13:00:00 33.6 7 Norte 11 Noroeste 0 964.4 -- 10
2020-08-24 12:00:00 31.9 4 Nordeste 12 Nordeste 0 964.9 -- 12
2020-08-24 11:00:00 28.7 3 Este 7 Nordeste 0 965 -- 16
2020-08-24 10:00:00 24.1 3 Noroeste 5 Oeste 0 964.8 -- 24
2020-08-24 09:00:00 18.7 2 Este 4 Nordeste 0 964.7 -- 34
2020-08-24 08:00:00 14.9 0 Calma 5 Sur 0 964.3 -- 53
2020-08-24 07:00:00 16.5 2 Sur 6 Norte 0 963.9 -- 36
2020-08-24 06:00:00 17.3 2 Sur 9 Sudoeste 0 963.9 -- 33
2020-08-24 05:00:00 16.4 2 Norte 6 Sudeste 0 963.8 -- 35
2020-08-24 04:00:00 18.5 0 Calma 12 Sur 0 964.1 -- 37
2020-08-24 03:00:00 20.5 6 Sur 12 Sudoeste 0 964.1 -- 24
2020-08-24 02:00:00 18.9 3 Oeste 6 Sudoeste 0 964.3 -- 26
2020-08-24 01:00:00 21.3 0 Calma 9 Sudeste 0 964.4 -- 21
2020-08-24 00:00:00 22 3 Sudeste 6 Sur 0 964.6 -- 17
2020-08-23 23:00:00 24.2 3 Norte 8 Sudeste 0 964.7 -- 15
2020-08-23 22:00:00 27.5 0 Calma 8 Oeste 0 964.4 -- 12
2020-08-23 21:00:00 31.5 5 Oeste 14 Sudoeste 0 964.2 -- 9
2020-08-23 20:00:00 34.5 10 Sudoeste 15 Oeste 0 964.3 -- 7
2020-08-23 19:00:00 35.5 7 Noroeste 18 Noroeste 0 964.6 -- 7
2020-08-23 18:00:00 36.1 5 Oeste 19 Oeste 0 964.9 -- 6
2020-08-23 17:00:00 35.4 8 Sudoeste 25 Oeste 0 965.6 -- 8
2020-08-23 16:00:00 35.3 7 Oeste 22 Oeste 0 966.1 -- 9
2020-08-23 15:00:00 34.1 9 Sudoeste 26 Sudoeste 0 966.8 -- 9
2020-08-23 14:00:00 33 8 Noroeste 17 Oeste 0 967.4 -- 11
2020-08-23 13:00:00 31.3 7 Noroeste 14 Norte 0 968 -- 13
2020-08-23 12:00:00 28.9 4 Nordeste 15 Noroeste 0 968.4 -- 20
2020-08-23 11:00:00 26.7 7 Norte 12 Noroeste 0 968.4 -- 23
2020-08-23 10:00:00 22.4 2 Norte 6 Este 0 968.4 -- 32
2020-08-23 09:00:00 18 4 Norte 6 Sudoeste 0 968.7 -- 44
2020-08-23 08:00:00 14.7 4 Sudoeste 7 Sudoeste 0 968.1 -- 50
2020-08-23 07:00:00 15.6 3 Sur 5 Sudeste 0 967.7 -- 53
2020-08-23 06:00:00 16.1 0 Calma 4 Sur 0 967.9 -- 45
2020-08-23 05:00:00 17.1 2 Sur 8 Oeste 0 967.9 -- 51
2020-08-23 04:00:00 17.6 3 Sudoeste 5 Oeste 0 967.9 -- 37
2020-08-23 03:00:00 17.9 0 Calma 4 Sudeste 0 968.1 -- 37
2020-08-23 02:00:00 19.9 0 Calma 7 Sudeste 0 968.4 -- 30
2020-08-23 01:00:00 22.6 6 Sudeste 8 Sudeste 0 968.2 -- 27
2020-08-23 00:00:00 26.4 6 Sudoeste 9 Sudoeste 0 968.4 -- 17
2020-08-22 23:00:00 26.7 5 Sudoeste 8 Sudoeste 0 968.3 -- 21
2020-08-22 22:00:00 28.5 5 Sudoeste 12 Oeste 0 967.9 -- 18
2020-08-22 21:00:00 31.1 6 Sudoeste 18 Oeste 0 967.4 -- 14
2020-08-22 20:00:00 33.5 10 Oeste 21 Sudoeste 0 967.2 -- 13
2020-08-22 19:00:00 34.3 10 Noroeste 21 Oeste 0 967.3 -- 14
2020-08-22 18:00:00 35.1 9 Noroeste 20 Sudoeste 0 967.6 -- 11
2020-08-22 17:00:00 34.8 11 Oeste 21 Oeste 0 968 -- 10
2020-08-22 16:00:00 34.2 7 Oeste 20 Noroeste 0 968.9 -- 13
2020-08-22 15:00:00 32.5 7 Oeste 21 Oeste 0 969.3 -- 15
2020-08-22 14:00:00 31.6 8 Oeste 24 Oeste 0 969.5 -- 23
2020-08-22 13:00:00 30.1 9 Noroeste 18 Noroeste 0 969.7 -- 26
2020-08-22 12:00:00 28.3 6 Noroeste 15 Oeste 0 970.1 -- 30
2020-08-22 11:00:00 26.7 5 Sudoeste 10 Oeste 0 969.9 -- 35
2020-08-22 10:00:00 24.8 2 Oeste 6 Sudoeste 0 969.6 -- 40
2020-08-22 09:00:00 21.4 3 Nordeste 4 Nordeste 0 969.5 -- 61
2020-08-22 08:00:00 18.8 3 Sudoeste 6 Sur 0 969.1 -- 69
2020-08-22 07:00:00 18.9 2 Sudeste 8 Norte 0 968.4 -- 69
2020-08-22 06:00:00 19.6 3 Sudoeste 4 Oeste 0 967.8 -- 63
2020-08-22 05:00:00 21.3 3 Sur 8 Sudeste 0 967.6 -- 55
2020-08-22 04:00:00 22.2 3 Sur 6 Sudoeste 0 967.6 -- 56
2020-08-22 03:00:00 22.8 4 Sur 7 Sudoeste 0 967.5 -- 60
2020-08-22 02:00:00 24 5 Noroeste 7 Noroeste 0 967.4 -- 55
2020-08-22 01:00:00 25.1 4 Nordeste 11 Oeste 0 967 -- 47
2020-08-22 00:00:00 26 8 Oeste 13 Oeste 0 966.5 -- 49
2020-08-21 23:00:00 27 5 Oeste 16 Oeste 0 966.2 -- 47
2020-08-21 22:00:00 28.2 10 Oeste 21 Oeste 0 965.5 -- 44
2020-08-21 21:00:00 29.4 11 Oeste 25 Oeste 0 965 -- 39
2020-08-21 20:00:00 31.3 15 Oeste 26 Oeste 0 964.8 -- 34
2020-08-21 19:00:00 32.4 17 Oeste 38 Oeste 0 964.6 -- 30
2020-08-21 18:00:00 32.7 17 Oeste 32 Oeste 0 964.5 -- 28
2020-08-21 17:00:00 33.1 16 Noroeste 35 Noroeste 0 964.4 -- 28
2020-08-21 16:00:00 32.7 15 Oeste 33 Oeste 0 964.8 -- 28
2020-08-21 15:00:00 32 17 Sudoeste 30 Sudoeste 0 965 -- 28
2020-08-21 14:00:00 31.2 13 Sudoeste 28 Oeste 0 964.9 -- 31
2020-08-21 13:00:00 29.8 11 Sudoeste 23 Sudoeste 0 965 -- 40
2020-08-21 12:00:00 27.5 8 Noroeste 18 Noroeste 0 965 -- 50
2020-08-21 11:00:00 25.6 5 Norte 13 Noroeste 0 964.6 -- 60
2020-08-21 10:00:00 23.6 5 Noroeste 11 Sudoeste 0 964.3 -- 68
2020-08-21 09:00:00 22.8 4 Sudoeste 10 Sur 0 963.8 -- 70
2020-08-21 08:00:00 20.8 4 Sudeste 10 Sudoeste 0 962.9 -- 77
2020-08-21 07:00:00 21.2 5 Sudoeste 11 Sudoeste 0 962.5 -- 75
2020-08-21 06:00:00 21.8 4 Oeste 25 Sudoeste 0 962 -- 71
2020-08-21 05:00:00 22.7 15 Sudoeste 23 Sudoeste 0 961.6 -- 67
2020-08-21 04:00:00 23.4 9 Oeste 15 Oeste 0 961.6 -- 60
2020-08-21 03:00:00 24.5 9 Sudoeste 13 Sudoeste 0 961.4 -- 52
2020-08-21 02:00:00 25.4 4 Sudoeste 6 Sudoeste 0 961.1 -- 50
2020-08-21 01:00:00 26 5 Oeste 11 Oeste 0 960.7 -- 44
2020-08-21 00:00:00 26.7 7 Oeste 11 Oeste 0 960.1 -- 31